createdAt,value
2023-04-20T00:01:14.132Z,6.72
2023-04-20T00:03:41.739Z,6.66
2023-04-20T00:06:08.561Z,6.59
2023-04-20T00:08:35.598Z,6.53
2023-04-20T00:11:02.191Z,6.50
2023-04-20T00:13:28.961Z,6.48
2023-04-20T00:15:55.650Z,6.44
2023-04-20T00:18:22.458Z,6.38
2023-04-20T00:20:49.039Z,6.29
2023-04-20T00:23:15.849Z,6.19
2023-04-20T00:25:42.404Z,6.10
2023-04-20T00:28:09.138Z,6.04
2023-04-20T00:30:35.908Z,5.97
2023-04-20T00:33:03.800Z,5.91
2023-04-20T00:35:31.365Z,5.88
2023-04-20T00:37:58.058Z,5.87
2023-04-20T00:40:25.861Z,5.84
2023-04-20T00:42:52.699Z,5.82
2023-04-20T00:45:21.470Z,5.77
2023-04-20T00:47:48.540Z,5.74
2023-04-20T00:50:15.582Z,5.72
2023-04-20T00:52:42.605Z,5.65
2023-04-20T00:55:09.421Z,5.59
2023-04-20T00:57:38.357Z,5.54
2023-04-20T01:00:06.872Z,5.48
2023-04-20T01:02:33.593Z,5.43
2023-04-20T01:05:01.161Z,5.40
2023-04-20T01:07:29.710Z,5.35
2023-04-20T01:09:56.512Z,5.31
2023-04-20T01:12:23.078Z,5.27
2023-04-20T01:14:50.040Z,5.26
2023-04-20T01:17:19.566Z,5.27
2023-04-20T01:19:46.340Z,5.27
2023-04-20T01:22:15.993Z,5.21
2023-04-20T01:24:44.921Z,5.16
2023-04-20T01:27:13.049Z,5.14
2023-04-20T01:29:39.764Z,5.15
2023-04-20T01:32:06.589Z,5.18
2023-04-20T01:34:33.569Z,5.21
2023-04-20T01:37:01.418Z,5.20
2023-04-20T01:39:28.066Z,5.20
2023-04-20T01:41:54.698Z,5.21
2023-04-20T01:44:21.445Z,5.25
2023-04-20T01:46:48.079Z,5.28
2023-04-20T01:49:15.308Z,5.26
2023-04-20T01:51:42.285Z,5.21
2023-04-20T01:54:09.022Z,5.15
2023-04-20T01:56:35.698Z,5.11
2023-04-20T01:59:02.597Z,5.07
2023-04-20T02:01:29.310Z,5.02
2023-04-20T02:03:56.065Z,5.00
2023-04-20T02:06:22.818Z,5.01
2023-04-20T02:08:49.600Z,5.00
2023-04-20T02:11:16.439Z,4.96
2023-04-20T02:13:43.054Z,4.93
2023-04-20T02:16:10.360Z,4.93
2023-04-20T02:18:37.181Z,4.92
2023-04-20T02:21:05.223Z,4.92
2023-04-20T02:23:31.962Z,4.92
2023-04-20T02:25:58.653Z,4.92
2023-04-20T02:28:25.894Z,4.93
2023-04-20T02:30:52.693Z,4.94
2023-04-20T02:33:21.117Z,4.94
2023-04-20T02:35:47.928Z,4.94
2023-04-20T02:38:15.422Z,4.95
2023-04-20T02:40:42.080Z,4.95
2023-04-20T02:43:09.007Z,4.94
2023-04-20T02:45:36.466Z,4.93
2023-04-20T02:48:03.307Z,4.92
2023-04-20T02:50:31.048Z,4.91
2023-04-20T02:53:10.348Z,4.89
2023-04-20T02:55:38.099Z,4.87
2023-04-20T02:58:12.499Z,4.89
2023-04-20T03:01:00.407Z,4.93
2023-04-20T03:03:28.234Z,4.97
2023-04-20T03:05:56.679Z,5.01
2023-04-20T03:08:23.719Z,5.05
2023-04-20T03:10:50.798Z,5.11
2023-04-20T03:13:20.138Z,5.14
2023-04-20T03:15:56.179Z,5.20
2023-04-20T03:18:30.430Z,5.24
2023-04-20T03:20:56.999Z,5.25
2023-04-20T03:23:24.068Z,5.27
2023-04-20T03:25:50.832Z,5.26
2023-04-20T03:28:41.370Z,5.24
2023-04-20T03:31:10.052Z,5.23
2023-04-20T03:33:37.026Z,5.19
2023-04-20T03:36:05.436Z,5.15
2023-04-20T03:38:32.085Z,5.14
2023-04-20T03:40:58.671Z,5.11
2023-04-20T03:43:25.446Z,5.09
2023-04-20T03:45:55.134Z,5.08
2023-04-20T03:48:21.877Z,5.08
2023-04-20T03:50:48.579Z,5.08
2023-04-20T03:53:15.176Z,5.10
2023-04-20T03:55:41.989Z,5.15
2023-04-20T03:58:11.165Z,5.23
2023-04-20T04:00:45.124Z,5.31
2023-04-20T04:03:12.081Z,5.39
2023-04-20T04:05:40.255Z,5.52
2023-04-20T04:08:06.906Z,5.66
2023-04-20T04:10:33.915Z,5.82
2023-04-20T04:13:01.720Z,5.98
2023-04-20T04:15:28.772Z,6.18
2023-04-20T04:18:02.088Z,6.36
2023-04-20T04:20:29.165Z,6.49
2023-04-20T04:22:56.856Z,6.63
2023-04-20T04:25:56.769Z,6.76
2023-04-20T04:28:24.496Z,6.91
2023-04-20T04:31:07.641Z,7.05
2023-04-20T04:33:34.391Z,7.15
2023-04-20T04:36:02.015Z,7.27
2023-04-20T04:38:29.135Z,7.54
2023-04-20T04:40:57.506Z,7.89
2023-04-20T04:43:25.153Z,8.22
2023-04-20T04:45:59.502Z,8.58
2023-04-20T04:48:27.396Z,8.85
2023-04-20T04:50:57.899Z,9.15
2023-04-20T04:53:24.827Z,9.48
2023-04-20T04:55:53.867Z,9.83
2023-04-20T04:58:22.973Z,10.16
2023-04-20T05:00:50.352Z,10.38
2023-04-20T05:03:42.347Z,10.57
2023-04-20T05:06:25.996Z,10.75
2023-04-20T05:08:53.465Z,10.87
2023-04-20T05:11:20.925Z,11.09
2023-04-20T05:13:49.545Z,11.44
2023-04-20T05:16:20.998Z,11.79
2023-04-20T05:18:48.322Z,12.15
2023-04-20T05:21:15.995Z,12.41
2023-04-20T05:23:44.560Z,12.66
2023-04-20T05:26:28.549Z,12.95
2023-04-20T05:28:59.250Z,13.09
2023-04-20T05:31:27.930Z,13.12
2023-04-20T05:34:07.119Z,13.13
2023-04-20T05:36:39.928Z,13.34
2023-04-20T05:39:21.160Z,13.36
2023-04-20T05:41:58.423Z,13.55
2023-04-20T05:44:30.130Z,13.97
2023-04-20T05:46:57.901Z,14.49
2023-04-20T05:49:33.128Z,15.07
2023-04-20T05:52:07.179Z,15.50
2023-04-20T05:54:56.460Z,15.82
2023-04-20T05:57:50.865Z,16.18
2023-04-20T09:08:06.352Z,25.14
2023-04-20T09:10:43.310Z,24.45
2023-04-20T09:13:37.121Z,23.51
2023-04-20T09:16:15.104Z,23.46
2023-04-20T09:18:56.067Z,23.44
2023-04-20T09:21:25.745Z,23.42
2023-04-20T09:24:09.196Z,23.91
2023-04-20T09:26:47.933Z,24.44
2023-04-20T09:29:31.568Z,23.93
2023-04-20T09:32:24.843Z,23.49
2023-04-20T09:34:58.293Z,24.18
2023-04-20T09:37:46.413Z,25.41
2023-04-20T09:40:16.170Z,26.03
2023-04-20T09:42:43.998Z,25.97
2023-04-20T09:45:18.214Z,26.02
2023-04-20T09:47:49.994Z,25.96
2023-04-20T09:50:34.999Z,25.92
2023-04-20T09:53:13.407Z,25.83
2023-04-20T09:55:46.183Z,25.07
2023-04-20T09:58:17.843Z,25.05
2023-04-20T10:00:44.886Z,25.67
2023-04-20T10:03:31.179Z,25.88
2023-04-20T10:06:00.093Z,26.52
2023-04-20T10:08:28.064Z,27.14
2023-04-20T10:11:15.915Z,27.71
2023-04-20T10:13:46.756Z,28.22
2023-04-20T10:16:18.552Z,28.32
2023-04-20T10:19:09.047Z,28.20
2023-04-20T10:21:49.706Z,28.15
2023-04-20T10:24:30.253Z,28.37
2023-04-20T10:26:58.208Z,28.81
2023-04-20T10:29:26.418Z,29.13
2023-04-20T10:31:54.607Z,29.44
2023-04-20T10:34:32.092Z,29.76
2023-04-20T10:37:09.748Z,29.19
2023-04-20T10:39:43.374Z,29.10
2023-04-20T10:42:11.313Z,28.56
2023-04-20T10:44:48.900Z,27.92
2023-04-20T10:47:26.340Z,27.43
2023-04-20T10:49:53.450Z,27.01
2023-04-20T10:52:36.843Z,26.62
2023-04-20T10:55:04.570Z,25.99
2023-04-20T10:57:33.725Z,25.51
2023-04-20T11:00:13.063Z,24.81
2023-04-20T11:02:45.791Z,24.46
2023-04-20T11:05:13.024Z,24.24
2023-04-20T11:07:53.612Z,23.72
2023-04-20T11:10:22.893Z,22.94
2023-04-20T11:12:50.817Z,22.45
2023-04-20T11:15:18.997Z,22.18
2023-04-20T11:17:46.434Z,21.90
2023-04-20T11:20:16.964Z,21.64
2023-04-20T11:22:44.406Z,21.45
2023-04-20T11:25:12.018Z,21.08
2023-04-20T11:27:42.967Z,20.91
2023-04-20T11:30:10.193Z,20.67
2023-04-20T11:32:37.761Z,20.56
2023-04-20T11:35:10.455Z,20.52
2023-04-20T11:37:48.443Z,20.41
2023-04-20T11:40:15.927Z,20.04
2023-04-20T11:42:43.396Z,19.67
2023-04-20T11:45:11.209Z,19.40
2023-04-20T11:47:40.484Z,19.14
2023-04-20T11:50:08.169Z,18.92
2023-04-20T11:52:35.546Z,18.74
2023-04-20T11:55:02.668Z,18.59
2023-04-20T11:57:29.636Z,18.44
2023-04-20T11:59:58.675Z,18.27
2023-04-20T12:02:26.120Z,17.99
2023-04-20T12:04:53.318Z,17.93
2023-04-20T12:07:22.812Z,17.87
2023-04-20T12:09:49.717Z,17.82
2023-04-20T12:12:16.631Z,17.84
2023-04-20T12:14:43.515Z,17.86
2023-04-20T12:17:10.631Z,17.87
2023-04-20T12:19:37.832Z,17.88
2023-04-20T12:22:04.621Z,17.99
2023-04-20T12:24:32.754Z,18.04
2023-04-20T12:26:59.761Z,17.87
2023-04-20T12:29:26.607Z,17.70
2023-04-20T12:31:53.603Z,17.44
2023-04-20T12:34:20.881Z,17.27
2023-04-20T12:36:50.530Z,17.12
2023-04-20T12:39:21.549Z,17.04
2023-04-20T12:41:48.605Z,16.97
2023-04-20T12:44:17.891Z,16.97
2023-04-20T12:46:44.877Z,16.86
2023-04-20T12:49:14.705Z,16.75
2023-04-20T12:51:46.390Z,16.72
2023-04-20T12:54:13.579Z,16.67
2023-04-20T12:56:45.674Z,16.60
2023-04-20T12:59:17.609Z,16.63
2023-04-20T13:01:51.699Z,16.62
2023-04-20T13:04:18.977Z,16.62
2023-04-20T13:06:46.643Z,16.65
2023-04-20T13:09:13.429Z,16.62
2023-04-20T13:11:40.917Z,16.54
2023-04-20T13:14:10.214Z,16.52
2023-04-20T13:16:38.027Z,16.51
2023-04-20T13:19:04.939Z,16.49
2023-04-20T13:21:34.883Z,16.48
2023-04-20T13:24:02.731Z,16.43
2023-04-20T13:26:29.667Z,16.37
2023-04-20T13:28:57.969Z,16.33
2023-04-20T13:31:24.875Z,16.23
2023-04-20T13:33:54.221Z,16.20
2023-04-20T13:36:23.626Z,16.20
2023-04-20T13:38:52.980Z,16.16
2023-04-20T13:41:19.761Z,16.15
2023-04-20T13:43:46.447Z,16.14
2023-04-20T13:46:15.497Z,16.17
2023-04-20T13:48:42.290Z,16.20
2023-04-20T13:51:11.289Z,16.22
2023-04-20T13:53:37.983Z,16.23
2023-04-20T13:56:04.724Z,16.25
2023-04-20T13:58:31.376Z,16.28
2023-04-20T14:00:58.086Z,16.24
2023-04-20T14:03:25.925Z,16.12
2023-04-20T14:05:53.007Z,16.00
2023-04-20T14:08:20.138Z,15.96
2023-04-20T14:10:46.877Z,15.99
2023-04-20T14:13:13.507Z,16.00
2023-04-20T14:15:41.199Z,16.02
2023-04-20T14:18:08.034Z,16.11
2023-04-20T14:20:34.872Z,16.16
2023-04-20T14:23:01.555Z,16.22
2023-04-20T14:25:28.626Z,16.17
2023-04-20T14:27:55.371Z,16.22
2023-04-20T14:30:22.526Z,16.22
2023-04-20T14:32:53.264Z,16.16
2023-04-20T14:35:20.163Z,16.18
2023-04-20T14:37:46.833Z,16.20
2023-04-20T14:40:13.725Z,16.22
2023-04-20T14:42:40.877Z,16.20
2023-04-20T14:45:08.180Z,16.19
2023-04-20T14:47:34.910Z,16.14
2023-04-20T14:50:01.700Z,16.02
2023-04-20T14:52:28.324Z,15.89
2023-04-20T14:54:55.803Z,15.77
2023-04-20T14:57:22.459Z,15.72
2023-04-20T14:59:49.150Z,15.74
2023-04-20T15:02:17.697Z,15.66
2023-04-20T15:04:44.542Z,15.56
2023-04-20T15:07:11.574Z,15.58
2023-04-20T15:09:38.233Z,15.62
2023-04-20T15:12:05.106Z,15.67
2023-04-20T15:14:31.958Z,15.68
2023-04-20T15:16:58.722Z,15.63
2023-04-20T15:19:25.678Z,15.57
2023-04-20T15:21:52.395Z,15.42
2023-04-20T15:24:19.286Z,15.22
2023-04-20T15:26:46.147Z,15.13
2023-04-20T15:29:13.888Z,15.11
2023-04-20T15:31:42.700Z,15.06
2023-04-20T15:34:10.758Z,14.96
2023-04-20T15:36:37.626Z,14.91
2023-04-20T15:39:04.479Z,14.86
2023-04-20T15:41:31.149Z,14.78
2023-04-20T15:43:57.906Z,14.73
2023-04-20T15:46:25.853Z,14.68
2023-04-20T15:48:52.580Z,14.56
2023-04-20T15:51:19.550Z,14.53
2023-04-20T15:53:49.913Z,14.54
2023-04-20T15:56:18.189Z,14.51
2023-04-20T15:58:45.552Z,14.49
2023-04-20T16:01:12.219Z,14.51
2023-04-20T16:03:39.201Z,14.56
2023-04-20T16:06:06.697Z,14.55
2023-04-20T16:08:33.579Z,14.51
2023-04-20T16:11:00.233Z,14.50
2023-04-20T16:13:27.072Z,14.45
2023-04-20T16:15:54.649Z,14.41
2023-04-20T16:18:21.462Z,14.34
2023-04-20T16:20:48.192Z,14.30
2023-04-20T16:23:14.971Z,14.30
2023-04-20T16:25:41.552Z,14.29
2023-04-20T16:28:08.265Z,14.24
2023-04-20T16:30:36.387Z,14.16
2023-04-20T16:33:03.569Z,14.05
2023-04-20T16:35:30.385Z,13.95
2023-04-20T16:37:57.087Z,13.86
2023-04-20T16:40:25.688Z,13.74
2023-04-20T16:42:52.426Z,13.61
2023-04-20T16:45:19.200Z,13.53
2023-04-20T16:47:46.000Z,13.46
2023-04-20T16:50:18.853Z,13.40
2023-04-20T16:52:46.136Z,13.34
2023-04-20T16:55:12.825Z,13.30
2023-04-20T16:57:40.642Z,13.25
2023-04-20T17:00:08.955Z,13.21
2023-04-20T17:02:36.924Z,13.18
2023-04-20T17:05:04.457Z,13.16
2023-04-20T17:07:31.253Z,13.15
2023-04-20T17:09:57.999Z,13.14
2023-04-20T17:12:24.834Z,13.14
2023-04-20T17:14:51.528Z,13.14
2023-04-20T17:17:18.257Z,13.14
2023-04-20T17:19:44.936Z,13.14
2023-04-20T17:22:11.557Z,13.13
2023-04-20T17:24:38.252Z,13.13
2023-04-20T17:27:04.976Z,13.13
2023-04-20T17:29:35.506Z,13.10
2023-04-20T17:32:02.232Z,13.07
2023-04-20T17:34:28.891Z,13.06
2023-04-20T17:36:55.607Z,13.02
2023-04-20T17:39:23.131Z,12.98
2023-04-20T17:41:49.780Z,12.92
2023-04-20T17:44:16.682Z,12.89
2023-04-20T17:46:43.528Z,12.88
2023-04-20T17:49:10.393Z,12.85
2023-04-20T17:51:36.980Z,12.83
2023-04-20T17:54:04.456Z,12.80
2023-04-20T17:56:31.330Z,12.78
2023-04-20T17:58:58.160Z,12.76
2023-04-20T18:01:25.080Z,12.75
2023-04-20T18:03:51.985Z,12.73
2023-04-20T18:06:18.998Z,12.72
2023-04-20T18:08:45.965Z,12.71
2023-04-20T18:11:13.233Z,12.70
2023-04-20T18:13:40.109Z,12.69
2023-04-20T18:16:07.723Z,12.68
2023-04-20T18:18:34.491Z,12.68
2023-04-20T18:21:01.148Z,12.67
2023-04-20T18:23:29.367Z,12.67
2023-04-20T18:25:56.219Z,12.68
2023-04-20T18:28:23.449Z,12.67
2023-04-20T18:30:50.207Z,12.65
2023-04-20T18:33:16.854Z,12.62
2023-04-20T18:35:44.940Z,12.58
2023-04-20T18:38:11.601Z,12.52
2023-04-20T18:40:38.466Z,12.47
2023-04-20T18:43:05.361Z,12.42
2023-04-20T18:45:32.098Z,12.41
2023-04-20T18:47:59.158Z,12.40
2023-04-20T18:50:25.854Z,12.36
2023-04-20T18:52:53.834Z,12.32
2023-04-20T18:55:20.769Z,12.29
2023-04-20T18:57:47.512Z,12.25
2023-04-20T19:00:14.416Z,12.20
2023-04-20T19:02:41.287Z,12.15
2023-04-20T19:05:08.128Z,12.13
2023-04-20T19:07:34.836Z,12.09
2023-04-20T19:10:01.546Z,12.05
2023-04-20T19:12:28.343Z,12.03
2023-04-20T19:14:55.153Z,12.05
2023-04-20T19:17:21.750Z,12.04
2023-04-20T19:19:50.378Z,12.02
2023-04-20T19:22:16.952Z,11.97
2023-04-20T19:24:43.803Z,11.92
2023-04-20T19:27:10.481Z,11.91
2023-04-20T19:29:39.392Z,11.92
2023-04-20T19:32:06.206Z,11.90
2023-04-20T19:34:32.912Z,11.88
2023-04-20T19:36:59.589Z,11.87
2023-04-20T19:39:28.388Z,11.85
2023-04-20T19:41:55.225Z,11.83
2023-04-20T19:44:21.813Z,11.80
2023-04-20T19:46:49.377Z,11.72
2023-04-20T19:49:16.378Z,11.66
2023-04-20T19:51:43.371Z,11.60
2023-04-20T19:54:11.315Z,11.55
2023-04-20T19:56:38.250Z,11.49
2023-04-20T19:59:04.946Z,11.45
2023-04-20T20:01:31.664Z,11.43
2023-04-20T20:03:58.498Z,11.39
2023-04-20T20:06:26.530Z,11.37
2023-04-20T20:08:53.296Z,11.35
2023-04-20T20:11:21.908Z,11.33
2023-04-20T20:13:48.586Z,11.30
2023-04-20T20:16:15.750Z,11.26
2023-04-20T20:18:43.227Z,11.22
2023-04-20T20:21:10.234Z,11.20
2023-04-20T20:23:36.873Z,11.17
2023-04-20T20:26:03.463Z,11.16
2023-04-20T20:28:30.270Z,11.16
2023-04-20T20:30:57.101Z,11.13
2023-04-20T20:33:23.840Z,11.11
2023-04-20T20:35:50.560Z,11.08
2023-04-20T20:38:20.216Z,11.06
2023-04-20T20:40:49.836Z,11.05
2023-04-20T20:43:17.852Z,11.09
2023-04-20T20:45:44.496Z,11.12
2023-04-20T20:48:11.115Z,11.15
2023-04-20T20:50:37.723Z,11.16
2023-04-20T20:53:04.443Z,11.16
2023-04-20T20:55:31.118Z,11.14
2023-04-20T20:57:57.685Z,11.14
2023-04-20T21:00:24.522Z,11.13
2023-04-20T21:02:51.909Z,11.09
2023-04-20T21:05:18.874Z,11.04
2023-04-20T21:07:45.545Z,11.01
2023-04-20T21:10:12.264Z,10.99
2023-04-20T21:12:38.868Z,10.96
2023-04-20T21:15:06.003Z,10.95
2023-04-20T21:17:32.756Z,10.93
2023-04-20T21:19:59.440Z,10.91
2023-04-20T21:22:27.232Z,10.86
2023-04-20T21:24:53.913Z,10.80
2023-04-20T21:27:20.619Z,10.76
2023-04-20T21:29:47.232Z,10.75
2023-04-20T21:32:13.875Z,10.76
2023-04-20T21:34:40.546Z,10.79
2023-04-20T21:37:08.440Z,10.78
2023-04-20T21:39:35.207Z,10.74
2023-04-20T21:42:02.675Z,10.69
2023-04-20T21:44:29.249Z,10.62
2023-04-20T21:46:55.955Z,10.56
2023-04-20T21:49:22.649Z,10.54
2023-04-20T21:51:49.343Z,10.53
2023-04-20T21:54:16.032Z,10.50
2023-04-20T21:56:42.754Z,10.47
2023-04-20T21:59:09.396Z,10.44
2023-04-20T22:01:36.206Z,10.40
2023-04-20T22:04:04.082Z,10.36
2023-04-20T22:06:34.006Z,10.28
2023-04-20T22:09:01.322Z,10.17
2023-04-20T22:11:28.921Z,10.05
2023-04-20T22:13:56.679Z,9.94
2023-04-20T22:16:23.619Z,9.84
2023-04-20T22:18:50.396Z,9.75
2023-04-20T22:21:17.020Z,9.62
2023-04-20T22:23:43.729Z,9.49
2023-04-20T22:26:10.366Z,9.36
2023-04-20T22:28:36.976Z,9.28
2023-04-20T22:31:03.618Z,9.18
2023-04-20T22:33:30.337Z,9.08
2023-04-20T22:35:57.141Z,8.98
2023-04-20T22:38:23.895Z,8.88
2023-04-20T22:40:50.588Z,8.81
2023-04-20T22:43:17.389Z,8.78
2023-04-20T22:45:43.995Z,8.71
2023-04-20T22:48:11.022Z,8.61
2023-04-20T22:50:37.736Z,8.51
2023-04-20T22:53:04.388Z,8.43
2023-04-20T22:55:31.104Z,8.30
2023-04-20T22:57:57.742Z,8.15
2023-04-20T23:00:24.440Z,8.01
2023-04-20T23:02:51.224Z,7.87
2023-04-20T23:05:19.736Z,7.79
2023-04-20T23:07:46.820Z,7.76
2023-04-20T23:10:16.462Z,7.70
2023-04-20T23:12:44.350Z,7.62
2023-04-20T23:15:11.387Z,7.58
2023-04-20T23:17:38.553Z,7.52
2023-04-20T23:20:12.890Z,7.48
2023-04-20T23:22:39.878Z,7.42
2023-04-20T23:25:06.871Z,7.35
2023-04-20T23:27:33.405Z,7.30
2023-04-20T23:30:00.381Z,7.23
2023-04-20T23:32:27.084Z,7.18
2023-04-20T23:34:53.726Z,7.11
2023-04-20T23:37:20.442Z,7.06
2023-04-20T23:39:47.103Z,6.99
2023-04-20T23:42:13.681Z,6.90
2023-04-20T23:44:40.279Z,6.83
2023-04-20T23:47:07.415Z,6.74
2023-04-20T23:49:34.106Z,6.66
2023-04-20T23:52:00.710Z,6.57
2023-04-20T23:54:27.773Z,6.52
2023-04-20T23:56:55.212Z,6.51
2023-04-20T23:59:21.877Z,6.45
